sensor_id;sensor_type;location;lat;lon;timestamp;P1;durP1;ratioP1;P2;durP2;ratioP2
13311;SDS011;34033;48.672;9.376;2023-12-28T00:01:09;3.07;;;2.50;;
13311;SDS011;34033;48.672;9.376;2023-12-28T00:03:35;8.03;;;2.20;;
13311;SDS011;34033;48.672;9.376;2023-12-28T00:06:00;3.37;;;2.33;;
13311;SDS011;34033;48.672;9.376;2023-12-28T00:08:25;3.60;;;2.37;;
13311;SDS011;34033;48.672;9.376;2023-12-28T00:10:51;3.87;;;2.40;;
13311;SDS011;34033;48.672;9.376;2023-12-28T00:13:16;2.90;;;2.13;;
13311;SDS011;34033;48.672;9.376;2023-12-28T00:15:42;3.57;;;2.47;;
13311;SDS011;34033;48.672;9.376;2023-12-28T00:18:07;2.53;;;2.17;;
13311;SDS011;34033;48.672;9.376;2023-12-28T00:20:32;2.70;;;2.13;;
13311;SDS011;34033;48.672;9.376;2023-12-28T00:22:58;2.53;;;2.00;;
13311;SDS011;34033;48.672;9.376;2023-12-28T00:25:24;2.80;;;2.40;;
13311;SDS011;34033;48.672;9.376;2023-12-28T00:27:49;1.90;;;1.80;;
13311;SDS011;34033;48.672;9.376;2023-12-28T00:30:14;3.73;;;2.77;;
13311;SDS011;34033;48.672;9.376;2023-12-28T00:32:42;2.67;;;2.47;;
13311;SDS011;34033;48.672;9.376;2023-12-28T00:35:09;7.37;;;3.00;;
13311;SDS011;34033;48.672;9.376;2023-12-28T00:37:35;3.07;;;2.47;;
13311;SDS011;34033;48.672;9.376;2023-12-28T00:40:00;5.27;;;2.73;;
13311;SDS011;34033;48.672;9.376;2023-12-28T00:42:25;3.10;;;2.40;;
13311;SDS011;34033;48.672;9.376;2023-12-28T00:44:50;2.53;;;2.33;;
13311;SDS011;34033;48.672;9.376;2023-12-28T00:47:17;4.20;;;2.10;;
13311;SDS011;34033;48.672;9.376;2023-12-28T00:49:42;3.07;;;2.40;;
13311;SDS011;34033;48.672;9.376;2023-12-28T00:52:08;2.67;;;2.40;;
13311;SDS011;34033;48.672;9.376;2023-12-28T00:54:34;2.70;;;1.80;;
13311;SDS011;34033;48.672;9.376;2023-12-28T00:57:00;3.73;;;2.60;;
13311;SDS011;34033;48.672;9.376;2023-12-28T00:59:25;3.27;;;2.60;;
13311;SDS011;34033;48.672;9.376;2023-12-28T01:01:51;3.33;;;2.93;;
13311;SDS011;34033;48.672;9.376;2023-12-28T01:04:16;1.97;;;1.80;;
13311;SDS011;34033;48.672;9.376;2023-12-28T01:06:42;2.70;;;2.30;;
13311;SDS011;34033;48.672;9.376;2023-12-28T01:09:07;3.47;;;2.43;;
13311;SDS011;34033;48.672;9.376;2023-12-28T01:11:33;2.57;;;2.30;;
13311;SDS011;34033;48.672;9.376;2023-12-28T01:13:58;3.20;;;2.30;;
13311;SDS011;34033;48.672;9.376;2023-12-28T01:16:24;2.87;;;2.07;;
13311;SDS011;34033;48.672;9.376;2023-12-28T01:18:49;2.90;;;2.30;;
13311;SDS011;34033;48.672;9.376;2023-12-28T01:21:14;4.13;;;2.80;;
13311;SDS011;34033;48.672;9.376;2023-12-28T01:23:40;5.40;;;2.87;;
13311;SDS011;34033;48.672;9.376;2023-12-28T01:26:05;4.50;;;2.70;;
13311;SDS011;34033;48.672;9.376;2023-12-28T01:28:30;3.03;;;2.30;;
13311;SDS011;34033;48.672;9.376;2023-12-28T01:30:56;2.47;;;2.17;;
13311;SDS011;34033;48.672;9.376;2023-12-28T01:33:21;2.90;;;1.97;;
13311;SDS011;34033;48.672;9.376;2023-12-28T01:35:46;4.13;;;2.53;;
13311;SDS011;34033;48.672;9.376;2023-12-28T01:38:12;2.23;;;2.07;;
13311;SDS011;34033;48.672;9.376;2023-12-28T01:40:37;2.53;;;2.33;;
13311;SDS011;34033;48.672;9.376;2023-12-28T01:43:02;4.57;;;3.07;;
13311;SDS011;34033;48.672;9.376;2023-12-28T01:45:28;3.73;;;2.80;;
13311;SDS011;34033;48.672;9.376;2023-12-28T01:47:53;6.43;;;2.40;;
13311;SDS011;34033;48.672;9.376;2023-12-28T01:50:22;3.23;;;2.30;;
13311;SDS011;34033;48.672;9.376;2023-12-28T01:52:51;2.33;;;2.13;;
13311;SDS011;34033;48.672;9.376;2023-12-28T01:55:16;2.30;;;1.60;;
13311;SDS011;34033;48.672;9.376;2023-12-28T01:57:42;2.07;;;1.87;;
13311;SDS011;34033;48.672;9.376;2023-12-28T02:00:08;1.73;;;1.63;;
13311;SDS011;34033;48.672;9.376;2023-12-28T02:02:34;1.53;;;1.43;;
13311;SDS011;34033;48.672;9.376;2023-12-28T02:04:59;3.13;;;1.80;;
13311;SDS011;34033;48.672;9.376;2023-12-28T02:07:26;1.70;;;1.60;;
13311;SDS011;34033;48.672;9.376;2023-12-28T02:09:52;1.67;;;1.57;;
13311;SDS011;34033;48.672;9.376;2023-12-28T02:12:17;1.80;;;1.70;;
13311;SDS011;34033;48.672;9.376;2023-12-28T02:14:43;2.47;;;1.60;;
13311;SDS011;34033;48.672;9.376;2023-12-28T02:19:55;1.90;;;1.67;;
13311;SDS011;34033;48.672;9.376;2023-12-28T02:22:26;2.20;;;1.70;;
13311;SDS011;34033;48.672;9.376;2023-12-28T02:25:08;2.73;;;1.73;;
13311;SDS011;34033;48.672;9.376;2023-12-28T02:27:36;2.47;;;1.90;;
13311;SDS011;34033;48.672;9.376;2023-12-28T02:30:05;2.30;;;1.93;;
13311;SDS011;34033;48.672;9.376;2023-12-28T02:32:41;2.30;;;1.63;;
13311;SDS011;34033;48.672;9.376;2023-12-28T02:37:58;3.50;;;2.20;;
13311;SDS011;34033;48.672;9.376;2023-12-28T02:40:27;7.73;;;2.03;;
13311;SDS011;34033;48.672;9.376;2023-12-28T02:42:54;1.93;;;1.60;;
13311;SDS011;34033;48.672;9.376;2023-12-28T02:45:20;3.47;;;1.60;;
13311;SDS011;34033;48.672;9.376;2023-12-28T02:47:45;3.30;;;1.50;;
13311;SDS011;34033;48.672;9.376;2023-12-28T02:50:11;2.50;;;1.77;;
13311;SDS011;34033;48.672;9.376;2023-12-28T02:52:36;1.60;;;1.50;;
13311;SDS011;34033;48.672;9.376;2023-12-28T02:55:01;2.23;;;2.00;;
13311;SDS011;34033;48.672;9.376;2023-12-28T02:57:27;2.40;;;1.70;;
13311;SDS011;34033;48.672;9.376;2023-12-28T02:59:52;4.50;;;3.63;;
13311;SDS011;34033;48.672;9.376;2023-12-28T03:02:17;5.27;;;2.53;;
13311;SDS011;34033;48.672;9.376;2023-12-28T03:04:43;3.13;;;1.83;;
13311;SDS011;34033;48.672;9.376;2023-12-28T03:07:08;3.33;;;2.33;;
13311;SDS011;34033;48.672;9.376;2023-12-28T03:09:33;2.50;;;2.10;;
13311;SDS011;34033;48.672;9.376;2023-12-28T03:11:59;2.17;;;1.97;;
13311;SDS011;34033;48.672;9.376;2023-12-28T03:14:25;2.17;;;1.73;;
13311;SDS011;34033;48.672;9.376;2023-12-28T03:16:50;1.83;;;1.73;;
13311;SDS011;34033;48.672;9.376;2023-12-28T03:19:15;2.27;;;1.90;;
13311;SDS011;34033;48.672;9.376;2023-12-28T03:21:41;1.43;;;1.33;;
13311;SDS011;34033;48.672;9.376;2023-12-28T03:24:07;2.03;;;1.53;;
13311;SDS011;34033;48.672;9.376;2023-12-28T03:26:32;2.10;;;1.47;;
13311;SDS011;34033;48.672;9.376;2023-12-28T03:29:02;2.30;;;1.90;;
13311;SDS011;34033;48.672;9.376;2023-12-28T03:31:27;1.60;;;1.50;;
13311;SDS011;34033;48.672;9.376;2023-12-28T03:33:53;2.07;;;1.87;;
13311;SDS011;34033;48.672;9.376;2023-12-28T03:36:18;1.53;;;1.43;;
13311;SDS011;34033;48.672;9.376;2023-12-28T03:38:45;2.30;;;1.70;;
13311;SDS011;34033;48.672;9.376;2023-12-28T03:41:19;1.93;;;1.60;;
13311;SDS011;34033;48.672;9.376;2023-12-28T03:43:45;2.27;;;1.40;;
13311;SDS011;34033;48.672;9.376;2023-12-28T03:46:11;1.60;;;1.50;;
13311;SDS011;34033;48.672;9.376;2023-12-28T03:48:37;1.87;;;1.70;;
13311;SDS011;34033;48.672;9.376;2023-12-28T03:51:03;2.60;;;1.60;;
13311;SDS011;34033;48.672;9.376;2023-12-28T03:53:29;3.27;;;1.53;;
13311;SDS011;34033;48.672;9.376;2023-12-28T03:55:56;2.00;;;1.70;;
13311;SDS011;34033;48.672;9.376;2023-12-28T03:58:21;1.70;;;1.60;;
13311;SDS011;34033;48.672;9.376;2023-12-28T04:00:47;3.23;;;2.00;;
13311;SDS011;34033;48.672;9.376;2023-12-28T04:03:12;2.57;;;2.37;;
13311;SDS011;34033;48.672;9.376;2023-12-28T04:05:37;4.33;;;2.20;;
13311;SDS011;34033;48.672;9.376;2023-12-28T04:08:03;2.80;;;2.10;;
13311;SDS011;34033;48.672;9.376;2023-12-28T04:10:29;2.33;;;1.67;;
13311;SDS011;34033;48.672;9.376;2023-12-28T04:12:58;1.53;;;1.43;;
13311;SDS011;34033;48.672;9.376;2023-12-28T04:15:24;4.13;;;2.40;;
13311;SDS011;34033;48.672;9.376;2023-12-28T04:17:50;1.70;;;1.60;;
13311;SDS011;34033;48.672;9.376;2023-12-28T04:20:16;1.97;;;1.40;;
13311;SDS011;34033;48.672;9.376;2023-12-28T04:22:41;1.70;;;1.20;;
13311;SDS011;34033;48.672;9.376;2023-12-28T04:25:08;2.00;;;1.70;;
13311;SDS011;34033;48.672;9.376;2023-12-28T04:27:36;2.10;;;1.80;;
13311;SDS011;34033;48.672;9.376;2023-12-28T04:30:02;1.70;;;1.43;;
13311;SDS011;34033;48.672;9.376;2023-12-28T04:32:30;1.90;;;1.70;;
13311;SDS011;34033;48.672;9.376;2023-12-28T04:34:56;2.60;;;1.80;;
13311;SDS011;34033;48.672;9.376;2023-12-28T04:37:21;1.70;;;1.60;;
13311;SDS011;34033;48.672;9.376;2023-12-28T04:39:46;1.37;;;1.27;;
13311;SDS011;34033;48.672;9.376;2023-12-28T04:42:12;1.57;;;1.40;;
13311;SDS011;34033;48.672;9.376;2023-12-28T04:44:40;1.87;;;1.60;;
13311;SDS011;34033;48.672;9.376;2023-12-28T04:47:05;1.27;;;1.20;;
13311;SDS011;34033;48.672;9.376;2023-12-28T04:49:31;1.83;;;1.67;;
13311;SDS011;34033;48.672;9.376;2023-12-28T04:51:56;2.10;;;1.40;;
13311;SDS011;34033;48.672;9.376;2023-12-28T04:54:22;2.40;;;1.70;;
13311;SDS011;34033;48.672;9.376;2023-12-28T04:56:48;1.40;;;1.30;;
13311;SDS011;34033;48.672;9.376;2023-12-28T04:59:13;2.87;;;1.87;;
13311;SDS011;34033;48.672;9.376;2023-12-28T05:01:42;1.50;;;1.40;;
13311;SDS011;34033;48.672;9.376;2023-12-28T05:04:08;1.67;;;1.57;;
13311;SDS011;34033;48.672;9.376;2023-12-28T05:06:33;1.50;;;1.40;;
13311;SDS011;34033;48.672;9.376;2023-12-28T05:08:59;2.10;;;1.90;;
13311;SDS011;34033;48.672;9.376;2023-12-28T05:11:24;2.13;;;1.80;;
13311;SDS011;34033;48.672;9.376;2023-12-28T05:13:49;1.53;;;1.43;;
13311;SDS011;34033;48.672;9.376;2023-12-28T05:16:15;2.03;;;1.63;;
13311;SDS011;34033;48.672;9.376;2023-12-28T05:18:40;1.50;;;1.40;;
13311;SDS011;34033;48.672;9.376;2023-12-28T05:21:05;2.27;;;1.63;;
13311;SDS011;34033;48.672;9.376;2023-12-28T05:23:31;1.97;;;1.50;;
13311;SDS011;34033;48.672;9.376;2023-12-28T05:25:56;3.10;;;1.77;;
13311;SDS011;34033;48.672;9.376;2023-12-28T05:28:21;1.43;;;1.33;;
13311;SDS011;34033;48.672;9.376;2023-12-28T05:30:47;1.60;;;1.50;;
13311;SDS011;34033;48.672;9.376;2023-12-28T05:33:12;1.80;;;1.70;;
13311;SDS011;34033;48.672;9.376;2023-12-28T05:35:37;1.93;;;1.60;;
13311;SDS011;34033;48.672;9.376;2023-12-28T05:38:03;1.63;;;1.47;;
13311;SDS011;34033;48.672;9.376;2023-12-28T05:40:28;1.80;;;1.33;;
13311;SDS011;34033;48.672;9.376;2023-12-28T05:42:53;1.77;;;1.67;;
13311;SDS011;34033;48.672;9.376;2023-12-28T05:45:19;4.27;;;1.47;;
13311;SDS011;34033;48.672;9.376;2023-12-28T05:47:44;2.47;;;1.80;;
13311;SDS011;34033;48.672;9.376;2023-12-28T05:50:10;1.47;;;1.37;;
13311;SDS011;34033;48.672;9.376;2023-12-28T05:52:35;2.07;;;1.70;;
13311;SDS011;34033;48.672;9.376;2023-12-28T05:55:00;1.93;;;1.83;;
13311;SDS011;34033;48.672;9.376;2023-12-28T05:57:26;2.33;;;1.80;;
13311;SDS011;34033;48.672;9.376;2023-12-28T05:59:54;2.43;;;2.10;;
13311;SDS011;34033;48.672;9.376;2023-12-28T06:02:20;2.47;;;2.00;;
13311;SDS011;34033;48.672;9.376;2023-12-28T06:04:45;3.97;;;1.70;;
13311;SDS011;34033;48.672;9.376;2023-12-28T06:07:11;3.57;;;1.97;;
13311;SDS011;34033;48.672;9.376;2023-12-28T06:09:36;2.50;;;1.80;;
13311;SDS011;34033;48.672;9.376;2023-12-28T06:12:03;2.70;;;1.80;;
13311;SDS011;34033;48.672;9.376;2023-12-28T06:14:32;2.73;;;1.93;;
13311;SDS011;34033;48.672;9.376;2023-12-28T06:16:57;1.90;;;1.80;;
13311;SDS011;34033;48.672;9.376;2023-12-28T06:19:23;1.87;;;1.77;;
13311;SDS011;34033;48.672;9.376;2023-12-28T06:21:48;2.10;;;1.83;;
13311;SDS011;34033;48.672;9.376;2023-12-28T06:24:14;2.40;;;2.17;;
13311;SDS011;34033;48.672;9.376;2023-12-28T06:26:43;1.60;;;1.50;;
13311;SDS011;34033;48.672;9.376;2023-12-28T06:29:09;1.80;;;1.43;;
13311;SDS011;34033;48.672;9.376;2023-12-28T06:31:36;2.13;;;1.63;;
13311;SDS011;34033;48.672;9.376;2023-12-28T06:34:02;2.17;;;1.37;;
13311;SDS011;34033;48.672;9.376;2023-12-28T06:36:28;1.90;;;1.30;;
13311;SDS011;34033;48.672;9.376;2023-12-28T06:38:54;1.97;;;1.43;;
13311;SDS011;34033;48.672;9.376;2023-12-28T06:41:19;2.10;;;1.40;;
13311;SDS011;34033;48.672;9.376;2023-12-28T06:43:44;1.50;;;1.40;;
13311;SDS011;34033;48.672;9.376;2023-12-28T06:46:10;1.33;;;1.23;;
13311;SDS011;34033;48.672;9.376;2023-12-28T06:48:35;1.73;;;1.63;;
13311;SDS011;34033;48.672;9.376;2023-12-28T06:51:00;3.93;;;1.90;;
13311;SDS011;34033;48.672;9.376;2023-12-28T06:53:27;2.50;;;1.80;;
13311;SDS011;34033;48.672;9.376;2023-12-28T06:55:52;2.00;;;1.80;;
13311;SDS011;34033;48.672;9.376;2023-12-28T06:58:17;1.67;;;1.57;;
13311;SDS011;34033;48.672;9.376;2023-12-28T07:00:48;1.80;;;1.70;;
13311;SDS011;34033;48.672;9.376;2023-12-28T07:03:14;2.47;;;1.90;;
13311;SDS011;34033;48.672;9.376;2023-12-28T07:05:39;2.53;;;2.00;;
13311;SDS011;34033;48.672;9.376;2023-12-28T07:08:04;2.80;;;2.23;;
13311;SDS011;34033;48.672;9.376;2023-12-28T07:10:30;2.53;;;2.17;;
13311;SDS011;34033;48.672;9.376;2023-12-28T07:12:55;1.77;;;1.67;;
13311;SDS011;34033;48.672;9.376;2023-12-28T07:15:21;2.97;;;2.17;;
13311;SDS011;34033;48.672;9.376;2023-12-28T07:17:46;3.53;;;2.20;;
13311;SDS011;34033;48.672;9.376;2023-12-28T07:20:11;4.63;;;2.27;;
13311;SDS011;34033;48.672;9.376;2023-12-28T07:22:37;2.50;;;1.77;;
13311;SDS011;34033;48.672;9.376;2023-12-28T07:25:04;1.57;;;1.47;;
13311;SDS011;34033;48.672;9.376;2023-12-28T07:27:30;2.47;;;1.60;;
13311;SDS011;34033;48.672;9.376;2023-12-28T07:29:55;1.70;;;1.60;;
13311;SDS011;34033;48.672;9.376;2023-12-28T07:32:21;1.57;;;1.27;;
13311;SDS011;34033;48.672;9.376;2023-12-28T07:34:48;2.00;;;1.53;;
13311;SDS011;34033;48.672;9.376;2023-12-28T07:37:13;3.33;;;2.33;;
13311;SDS011;34033;48.672;9.376;2023-12-28T07:39:38;2.20;;;1.93;;
13311;SDS011;34033;48.672;9.376;2023-12-28T07:42:04;2.40;;;2.17;;
13311;SDS011;34033;48.672;9.376;2023-12-28T07:44:29;2.00;;;1.83;;
13311;SDS011;34033;48.672;9.376;2023-12-28T07:46:54;1.83;;;1.73;;
13311;SDS011;34033;48.672;9.376;2023-12-28T07:49:20;1.83;;;1.73;;
13311;SDS011;34033;48.672;9.376;2023-12-28T07:51:45;2.77;;;2.17;;
13311;SDS011;34033;48.672;9.376;2023-12-28T07:54:10;3.00;;;2.40;;
13311;SDS011;34033;48.672;9.376;2023-12-28T07:56:36;3.80;;;2.83;;
13311;SDS011;34033;48.672;9.376;2023-12-28T07:59:01;2.47;;;2.27;;
13311;SDS011;34033;48.672;9.376;2023-12-28T08:01:26;3.03;;;2.43;;
13311;SDS011;34033;48.672;9.376;2023-12-28T08:03:52;4.23;;;2.63;;
13311;SDS011;34033;48.672;9.376;2023-12-28T08:06:17;3.10;;;2.17;;
13311;SDS011;34033;48.672;9.376;2023-12-28T08:08:42;3.93;;;2.57;;
13311;SDS011;34033;48.672;9.376;2023-12-28T08:11:08;2.30;;;1.90;;
13311;SDS011;34033;48.672;9.376;2023-12-28T08:13:33;3.43;;;2.03;;
13311;SDS011;34033;48.672;9.376;2023-12-28T08:15:59;6.10;;;2.20;;
13311;SDS011;34033;48.672;9.376;2023-12-28T08:18:24;2.87;;;2.47;;
13311;SDS011;34033;48.672;9.376;2023-12-28T08:20:50;2.97;;;2.40;;
13311;SDS011;34033;48.672;9.376;2023-12-28T08:23:15;3.23;;;2.53;;
13311;SDS011;34033;48.672;9.376;2023-12-28T08:25:41;3.30;;;2.23;;
13311;SDS011;34033;48.672;9.376;2023-12-28T08:28:06;3.83;;;2.80;;
13311;SDS011;34033;48.672;9.376;2023-12-28T08:30:31;2.50;;;2.17;;
13311;SDS011;34033;48.672;9.376;2023-12-28T08:32:56;2.93;;;2.33;;
13311;SDS011;34033;48.672;9.376;2023-12-28T08:35:22;2.83;;;2.47;;
13311;SDS011;34033;48.672;9.376;2023-12-28T08:37:47;3.03;;;2.57;;
13311;SDS011;34033;48.672;9.376;2023-12-28T08:40:13;6.30;;;3.40;;
13311;SDS011;34033;48.672;9.376;2023-12-28T08:42:38;6.27;;;3.90;;
13311;SDS011;34033;48.672;9.376;2023-12-28T08:45:04;3.03;;;2.43;;
13311;SDS011;34033;48.672;9.376;2023-12-28T08:47:30;2.20;;;2.00;;
13311;SDS011;34033;48.672;9.376;2023-12-28T08:49:55;2.00;;;1.80;;
13311;SDS011;34033;48.672;9.376;2023-12-28T08:52:21;2.03;;;1.83;;
13311;SDS011;34033;48.672;9.376;2023-12-28T08:54:46;4.43;;;3.03;;
13311;SDS011;34033;48.672;9.376;2023-12-28T08:57:12;3.47;;;2.83;;
13311;SDS011;34033;48.672;9.376;2023-12-28T08:59:37;2.80;;;1.93;;
13311;SDS011;34033;48.672;9.376;2023-12-28T09:02:03;2.43;;;2.20;;
13311;SDS011;34033;48.672;9.376;2023-12-28T09:04:28;2.30;;;1.93;;
13311;SDS011;34033;48.672;9.376;2023-12-28T09:06:53;3.30;;;2.20;;
13311;SDS011;34033;48.672;9.376;2023-12-28T09:09:19;3.27;;;2.57;;
13311;SDS011;34033;48.672;9.376;2023-12-28T09:11:44;5.87;;;3.80;;
13311;SDS011;34033;48.672;9.376;2023-12-28T09:14:10;3.90;;;3.40;;
13311;SDS011;34033;48.672;9.376;2023-12-28T09:16:35;5.40;;;3.30;;
13311;SDS011;34033;48.672;9.376;2023-12-28T09:19:00;3.03;;;2.73;;
13311;SDS011;34033;48.672;9.376;2023-12-28T09:21:26;5.07;;;3.00;;
13311;SDS011;34033;48.672;9.376;2023-12-28T09:23:52;4.43;;;2.83;;
13311;SDS011;34033;48.672;9.376;2023-12-28T09:26:17;6.03;;;2.97;;
13311;SDS011;34033;48.672;9.376;2023-12-28T09:28:43;2.80;;;2.47;;
13311;SDS011;34033;48.672;9.376;2023-12-28T09:31:08;2.87;;;2.50;;
13311;SDS011;34033;48.672;9.376;2023-12-28T09:33:34;3.43;;;2.83;;
13311;SDS011;34033;48.672;9.376;2023-12-28T09:36:02;2.83;;;2.50;;
13311;SDS011;34033;48.672;9.376;2023-12-28T09:38:28;2.80;;;2.47;;
13311;SDS011;34033;48.672;9.376;2023-12-28T09:40:54;3.50;;;2.53;;
13311;SDS011;34033;48.672;9.376;2023-12-28T09:43:26;3.70;;;2.83;;
13311;SDS011;34033;48.672;9.376;2023-12-28T09:46:05;3.10;;;2.43;;
13311;SDS011;34033;48.672;9.376;2023-12-28T09:48:32;2.93;;;2.33;;
13311;SDS011;34033;48.672;9.376;2023-12-28T09:50:58;2.13;;;2.03;;
13311;SDS011;34033;48.672;9.376;2023-12-28T09:53:23;3.10;;;2.37;;
13311;SDS011;34033;48.672;9.376;2023-12-28T09:55:49;3.67;;;2.60;;
13311;SDS011;34033;48.672;9.376;2023-12-28T09:58:18;2.40;;;2.17;;
13311;SDS011;34033;48.672;9.376;2023-12-28T10:00:45;2.43;;;2.10;;
13311;SDS011;34033;48.672;9.376;2023-12-28T10:03:12;4.37;;;2.57;;
13311;SDS011;34033;48.672;9.376;2023-12-28T10:05:40;3.07;;;2.57;;
13311;SDS011;34033;48.672;9.376;2023-12-28T10:08:06;3.23;;;2.30;;
13311;SDS011;34033;48.672;9.376;2023-12-28T10:10:32;2.10;;;1.90;;
13311;SDS011;34033;48.672;9.376;2023-12-28T10:12:57;2.77;;;2.30;;
13311;SDS011;34033;48.672;9.376;2023-12-28T10:15:22;1.87;;;1.77;;
13311;SDS011;34033;48.672;9.376;2023-12-28T10:17:50;9.90;;;2.13;;
13311;SDS011;34033;48.672;9.376;2023-12-28T10:20:16;2.40;;;2.20;;
13311;SDS011;34033;48.672;9.376;2023-12-28T10:22:42;3.37;;;2.27;;
13311;SDS011;34033;48.672;9.376;2023-12-28T10:25:08;3.27;;;2.37;;
13311;SDS011;34033;48.672;9.376;2023-12-28T10:27:40;2.37;;;2.17;;
13311;SDS011;34033;48.672;9.376;2023-12-28T10:30:09;2.30;;;2.10;;
13311;SDS011;34033;48.672;9.376;2023-12-28T10:32:35;3.77;;;2.87;;
13311;SDS011;34033;48.672;9.376;2023-12-28T10:35:01;2.90;;;2.60;;
13311;SDS011;34033;48.672;9.376;2023-12-28T10:37:27;5.27;;;3.30;;
13311;SDS011;34033;48.672;9.376;2023-12-28T10:39:53;3.43;;;3.00;;
13311;SDS011;34033;48.672;9.376;2023-12-28T10:42:31;7.63;;;3.03;;
13311;SDS011;34033;48.672;9.376;2023-12-28T10:45:02;4.40;;;3.47;;
13311;SDS011;34033;48.672;9.376;2023-12-28T10:47:33;5.53;;;2.93;;
13311;SDS011;34033;48.672;9.376;2023-12-28T10:50:03;6.77;;;2.90;;
13311;SDS011;34033;48.672;9.376;2023-12-28T10:52:30;5.87;;;2.90;;
13311;SDS011;34033;48.672;9.376;2023-12-28T10:55:02;4.70;;;3.10;;
13311;SDS011;34033;48.672;9.376;2023-12-28T10:57:46;2.90;;;2.67;;
13311;SDS011;34033;48.672;9.376;2023-12-28T11:00:22;3.87;;;2.67;;
13311;SDS011;34033;48.672;9.376;2023-12-28T11:02:53;4.30;;;3.10;;
13311;SDS011;34033;48.672;9.376;2023-12-28T11:05:23;3.97;;;2.77;;
13311;SDS011;34033;48.672;9.376;2023-12-28T11:07:50;5.87;;;3.40;;
13311;SDS011;34033;48.672;9.376;2023-12-28T11:10:22;2.20;;;2.00;;
13311;SDS011;34033;48.672;9.376;2023-12-28T11:12:50;5.53;;;3.40;;
13311;SDS011;34033;48.672;9.376;2023-12-28T11:15:18;6.37;;;3.80;;
13311;SDS011;34033;48.672;9.376;2023-12-28T11:17:44;5.20;;;3.83;;
13311;SDS011;34033;48.672;9.376;2023-12-28T11:20:09;4.63;;;3.57;;
13311;SDS011;34033;48.672;9.376;2023-12-28T11:22:36;4.73;;;3.60;;
13311;SDS011;34033;48.672;9.376;2023-12-28T11:25:03;3.43;;;2.63;;
13311;SDS011;34033;48.672;9.376;2023-12-28T11:27:35;5.83;;;3.43;;
13311;SDS011;34033;48.672;9.376;2023-12-28T11:30:04;3.93;;;3.27;;
13311;SDS011;34033;48.672;9.376;2023-12-28T11:32:33;3.77;;;3.07;;
13311;SDS011;34033;48.672;9.376;2023-12-28T11:34:59;4.10;;;3.07;;
13311;SDS011;34033;48.672;9.376;2023-12-28T11:37:25;4.20;;;3.20;;
13311;SDS011;34033;48.672;9.376;2023-12-28T11:39:52;4.17;;;3.20;;
13311;SDS011;34033;48.672;9.376;2023-12-28T11:42:20;4.60;;;3.20;;
13311;SDS011;34033;48.672;9.376;2023-12-28T11:44:47;4.43;;;3.10;;
13311;SDS011;34033;48.672;9.376;2023-12-28T11:47:22;2.87;;;2.67;;
13311;SDS011;34033;48.672;9.376;2023-12-28T11:49:49;4.83;;;3.13;;
13311;SDS011;34033;48.672;9.376;2023-12-28T11:52:23;4.07;;;2.60;;
13311;SDS011;34033;48.672;9.376;2023-12-28T11:54:50;5.03;;;3.30;;
13311;SDS011;34033;48.672;9.376;2023-12-28T11:57:15;3.27;;;2.97;;
13311;SDS011;34033;48.672;9.376;2023-12-28T11:59:41;4.80;;;3.03;;
13311;SDS011;34033;48.672;9.376;2023-12-28T12:02:06;4.70;;;2.90;;
13311;SDS011;34033;48.672;9.376;2023-12-28T12:04:33;4.97;;;2.77;;
13311;SDS011;34033;48.672;9.376;2023-12-28T12:07:03;5.80;;;2.57;;
13311;SDS011;34033;48.672;9.376;2023-12-28T12:09:29;3.23;;;2.93;;
13311;SDS011;34033;48.672;9.376;2023-12-28T12:11:59;3.87;;;3.10;;
13311;SDS011;34033;48.672;9.376;2023-12-28T12:14:28;3.73;;;3.07;;
13311;SDS011;34033;48.672;9.376;2023-12-28T12:16:54;3.90;;;2.50;;
13311;SDS011;34033;48.672;9.376;2023-12-28T12:19:23;3.57;;;2.70;;
13311;SDS011;34033;48.672;9.376;2023-12-28T12:21:51;2.90;;;2.70;;
13311;SDS011;34033;48.672;9.376;2023-12-28T12:24:17;3.53;;;2.80;;
13311;SDS011;34033;48.672;9.376;2023-12-28T12:26:45;4.50;;;3.17;;
13311;SDS011;34033;48.672;9.376;2023-12-28T12:29:10;4.13;;;3.30;;
13311;SDS011;34033;48.672;9.376;2023-12-28T12:31:36;3.20;;;2.63;;
13311;SDS011;34033;48.672;9.376;2023-12-28T12:34:03;3.03;;;2.73;;
13311;SDS011;34033;48.672;9.376;2023-12-28T12:36:28;2.77;;;2.57;;
13311;SDS011;34033;48.672;9.376;2023-12-28T12:38:54;4.13;;;2.93;;
13311;SDS011;34033;48.672;9.376;2023-12-28T12:41:19;3.27;;;2.90;;
13311;SDS011;34033;48.672;9.376;2023-12-28T12:43:45;4.03;;;3.33;;
13311;SDS011;34033;48.672;9.376;2023-12-28T12:46:10;2.97;;;2.73;;
13311;SDS011;34033;48.672;9.376;2023-12-28T12:48:36;2.87;;;2.67;;
13311;SDS011;34033;48.672;9.376;2023-12-28T12:51:02;3.60;;;3.00;;
13311;SDS011;34033;48.672;9.376;2023-12-28T12:53:34;5.67;;;3.17;;
13311;SDS011;34033;48.672;9.376;2023-12-28T12:56:02;3.53;;;2.90;;
13311;SDS011;34033;48.672;9.376;2023-12-28T12:58:28;6.07;;;3.53;;
13311;SDS011;34033;48.672;9.376;2023-12-28T13:00:55;4.10;;;3.47;;
13311;SDS011;34033;48.672;9.376;2023-12-28T13:03:21;3.63;;;2.93;;
13311;SDS011;34033;48.672;9.376;2023-12-28T13:05:47;4.23;;;3.50;;
13311;SDS011;34033;48.672;9.376;2023-12-28T13:08:13;5.30;;;3.50;;
13311;SDS011;34033;48.672;9.376;2023-12-28T13:10:39;4.30;;;3.57;;
13311;SDS011;34033;48.672;9.376;2023-12-28T13:13:08;3.40;;;2.97;;
13311;SDS011;34033;48.672;9.376;2023-12-28T13:15:33;3.87;;;2.77;;
13311;SDS011;34033;48.672;9.376;2023-12-28T13:17:59;4.87;;;3.17;;
13311;SDS011;34033;48.672;9.376;2023-12-28T13:20:24;4.47;;;3.50;;
13311;SDS011;34033;48.672;9.376;2023-12-28T13:22:50;4.90;;;3.00;;
13311;SDS011;34033;48.672;9.376;2023-12-28T13:25:15;4.93;;;3.47;;
13311;SDS011;34033;48.672;9.376;2023-12-28T13:27:41;4.07;;;3.17;;
13311;SDS011;34033;48.672;9.376;2023-12-28T13:30:07;5.27;;;3.27;;
13311;SDS011;34033;48.672;9.376;2023-12-28T13:32:32;3.40;;;3.10;;
13311;SDS011;34033;48.672;9.376;2023-12-28T13:34:58;4.87;;;3.77;;
13311;SDS011;34033;48.672;9.376;2023-12-28T13:37:23;3.73;;;3.37;;
13311;SDS011;34033;48.672;9.376;2023-12-28T13:39:49;5.73;;;4.00;;
13311;SDS011;34033;48.672;9.376;2023-12-28T13:42:14;6.10;;;3.70;;
13311;SDS011;34033;48.672;9.376;2023-12-28T13:44:40;5.67;;;4.47;;
13311;SDS011;34033;48.672;9.376;2023-12-28T13:47:06;10.17;;;4.57;;
13311;SDS011;34033;48.672;9.376;2023-12-28T13:49:32;7.70;;;4.47;;
13311;SDS011;34033;48.672;9.376;2023-12-28T13:51:57;9.17;;;4.73;;
13311;SDS011;34033;48.672;9.376;2023-12-28T13:54:23;7.27;;;4.67;;
13311;SDS011;34033;48.672;9.376;2023-12-28T13:56:48;7.80;;;4.73;;
13311;SDS011;34033;48.672;9.376;2023-12-28T13:59:14;7.20;;;4.90;;
13311;SDS011;34033;48.672;9.376;2023-12-28T14:01:39;8.53;;;4.67;;
13311;SDS011;34033;48.672;9.376;2023-12-28T14:04:05;5.37;;;4.40;;
13311;SDS011;34033;48.672;9.376;2023-12-28T14:06:31;7.17;;;5.03;;
13311;SDS011;34033;48.672;9.376;2023-12-28T14:08:57;7.23;;;5.20;;
13311;SDS011;34033;48.672;9.376;2023-12-28T14:11:23;8.47;;;5.87;;
13311;SDS011;34033;48.672;9.376;2023-12-28T14:13:48;10.40;;;6.23;;
13311;SDS011;34033;48.672;9.376;2023-12-28T14:16:14;9.87;;;7.10;;
13311;SDS011;34033;48.672;9.376;2023-12-28T14:18:39;11.13;;;6.80;;
13311;SDS011;34033;48.672;9.376;2023-12-28T14:21:07;9.80;;;6.50;;
13311;SDS011;34033;48.672;9.376;2023-12-28T14:23:34;9.27;;;6.57;;
13311;SDS011;34033;48.672;9.376;2023-12-28T14:26:00;14.60;;;7.27;;
13311;SDS011;34033;48.672;9.376;2023-12-28T14:28:25;9.93;;;7.00;;
13311;SDS011;34033;48.672;9.376;2023-12-28T14:30:51;10.70;;;6.10;;
13311;SDS011;34033;48.672;9.376;2023-12-28T14:33:17;10.70;;;6.27;;
13311;SDS011;34033;48.672;9.376;2023-12-28T14:35:43;7.90;;;5.93;;
13311;SDS011;34033;48.672;9.376;2023-12-28T14:38:08;8.13;;;5.70;;
13311;SDS011;34033;48.672;9.376;2023-12-28T14:40:34;7.33;;;5.30;;
13311;SDS011;34033;48.672;9.376;2023-12-28T14:42:59;9.23;;;5.63;;
13311;SDS011;34033;48.672;9.376;2023-12-28T14:45:25;8.27;;;5.33;;
13311;SDS011;34033;48.672;9.376;2023-12-28T14:47:50;7.67;;;5.10;;